KNGU/NGU METAR and TAF weather

Enter ICAO airport designator
Station Type Date Time Source
KNGU METAR 2020/01/24 08:59 UTC NOAA

KNGU 240859Z 01009KT 6SM BR FEW007 SCT250 07/05 A3026 RMK AO2 SLP245 T00670050 56007 $


Station Type Date Time Source
KNGU Decoded METAR 2020/01/24 08:59 UTC NOAA

Norfolk, Naval Air Station, VA, United States (KNGU) 36-56-01N 076-17-45W 8M
Jan 24, 2020 - 03:59 AM EST / 2020.01.24 0859 UTC
Wind: from the N (010 degrees) at 10 MPH (9 KT):0
Visibility: 6 mile(s):0
Sky conditions: partly cloudy
Weather: mist
Temperature: 44.1 F (6.7 C)
Dew Point: 41.0 F (5.0 C)
Relative Humidity: 88%
Pressure (altimeter): 30.26 in. Hg (1024 hPa)
Pressure tendency: 0.02 inches (0.7 hPa) lower than three hours ago
ob: KNGU 240859Z 01009KT 6SM BR FEW007 SCT250 07/05 A3026 RMK AO2 SLP245 T00670050 56007
cycle: 9

Station Type Date Time Source
KNGU TAF 2020/01/24 09:35 UTC NOAA

TAF
AMD KNGU 2409/2507 03010KT 9999 FEW020 SCT030 SCT280 QNH3021INS
TEMPO 2409/2412 VRB06KT 6000 BR FEW007 BKN025 BKN250
FM241200 06010KT 9999 FEW025 BKN040 BKN200 QNH3021INS
TEMPO 2412/2416 BKN025 OVC060
FM241700 08010KT 9999 SCT025 BKN060 OVC180 QNH3006INS
FM250300 12012KT 9999 VCSH FEW025 BKN040 OVC180 QNH3001INS T05/2409Z T14/2420Z
AMD 0927 FN00062

Example: see airport list